Weather at Melbourne International Airport

Public forecast

Using degrees Fahrenheit for public forecast. Weather courtesy of forecast.io.

Current aviation weather report (METAR) for Melbourne International Airport

Retrieved 2020/11/27 08:53 UTC (1 hour ago):

KMLB 270853Z AUTO 00000KT 10SM CLR 18/18 A3008 RMK AO2 SLP185 T01780178 58006

Aviation forecast (TAF) for Melbourne International Airport

Retrieved 2020/11/27 06:10 UTC (4 hours ago):

TAF KMLB 270543Z 2706/2806 VRB03KT P6SM FEW040 SCT300 TEMPO 2710/2713 3SM MIFG BR SCT010 FM271400 VRB04KT P6SM FEW030 SCT250 FM271700 08007KT P6SM SCT040 SCT250 FM280000 VRB03KT P6SM FEW045 SCT250 AMD NOT SKED